Time;durP1;ratioP1;P1;durP2;ratioP2;P2;SDS_P1;SDS_P2;PMS_P1;PMS_P2;Temp;Humidity;BMP_temperature;BMP_pressure;BME280_temperature;BME280_humidity;BME280_pressure;Samples;Min_cycle;Max_cycle;Signal;HPM_P1;HPM_P2
2023/03/08 00:00:14;;;;;;;0.00;0.00;;;3.70;88.00;;;;;;5067786;28;20044;-71
2023/03/08 00:02:40;;;;;;;0.00;0.00;;;3.80;88.00;;;;;;5068154;28;20021;-71
2023/03/08 00:05:06;;;;;;;0.00;0.00;;;3.80;88.00;;;;;;5067946;28;20473;-71
2023/03/08 00:07:33;;;;;;;0.00;0.00;;;3.70;88.00;;;;;;5066406;28;20136;-71
2023/03/08 00:09:58;;;;;;;0.00;0.00;;;3.70;88.10;;;;;;5065979;28;20036;-71
2023/03/08 00:12:24;;;;;;;0.00;0.00;;;3.70;88.20;;;;;;5067980;28;20526;-71
2023/03/08 00:14:50;;;;;;;0.00;0.00;;;3.70;88.30;;;;;;5067799;28;20107;-71
2023/03/08 00:17:17;;;;;;;0.00;0.00;;;3.70;88.30;;;;;;5067552;28;20047;-71
2023/03/08 00:19:43;;;;;;;0.00;0.00;;;3.70;88.20;;;;;;5067733;28;20029;-71
2023/03/08 00:22:10;;;;;;;0.00;0.00;;;3.80;88.20;;;;;;5068107;28;20427;-70
2023/03/08 00:24:37;;;;;;;0.00;0.00;;;3.90;88.20;;;;;;5066047;28;20063;-71
2023/03/08 00:27:02;;;;;;;0.00;0.00;;;3.90;88.20;;;;;;5066278;28;20020;-71
2023/03/08 00:29:29;;;;;;;0.00;0.00;;;4.00;88.20;;;;;;5066193;28;20047;-71
2023/03/08 00:31:55;;;;;;;0.00;0.00;;;4.00;88.10;;;;;;5067707;28;20388;-71
2023/03/08 00:34:21;;;;;;;0.00;0.00;;;4.00;88.00;;;;;;5067657;28;20032;-71
2023/03/08 00:36:47;;;;;;;0.00;0.00;;;4.00;88.00;;;;;;5066367;28;20085;-71
2023/03/08 00:39:13;;;;;;;0.00;0.00;;;4.00;88.20;;;;;;5066117;28;20029;-71
2023/03/08 00:41:39;;;;;;;0.00;0.00;;;4.00;88.20;;;;;;5067494;28;20162;-71
2023/03/08 00:44:05;;;;;;;0.00;0.00;;;4.00;88.30;;;;;;5067543;28;20103;-71
2023/03/08 00:46:30;;;;;;;0.00;0.00;;;4.10;88.40;;;;;;5066041;28;20033;-71
2023/03/08 00:48:57;;;;;;;0.00;0.00;;;4.10;88.40;;;;;;5067501;28;20040;-71
2023/03/08 00:51:23;;;;;;;0.00;0.00;;;4.20;88.40;;;;;;5067427;28;20039;-71
2023/03/08 00:53:49;;;;;;;0.00;0.00;;;4.20;88.20;;;;;;5067472;28;20373;-71
2023/03/08 00:56:15;;;;;;;0.00;0.00;;;4.10;88.20;;;;;;5067265;28;20435;-71
2023/03/08 00:58:41;;;;;;;0.00;0.00;;;4.10;88.30;;;;;;5066948;28;20044;-69
2023/03/08 01:01:11;;;;;;;0.00;0.00;;;4.20;88.40;;;;;;5067302;28;20025;-69
2023/03/08 01:03:36;;;;;;;0.00;0.00;;;4.20;88.20;;;;;;5067445;28;20025;-69
2023/03/08 01:06:07;;;;;;;0.00;0.00;;;4.20;88.10;;;;;;5067343;28;20431;-69
2023/03/08 01:08:33;;;;;;;0.00;0.00;;;4.30;88.00;;;;;;5065931;28;20186;-69
2023/03/08 01:10:59;;;;;;;0.00;0.00;;;4.30;87.90;;;;;;5067229;28;20025;-71
2023/03/08 01:13:31;;;;;;;0.00;0.00;;;4.30;87.80;;;;;;5067262;28;20112;-69
2023/03/08 01:15:57;;;;;;;0.00;0.00;;;4.20;87.70;;;;;;5065582;28;20459;-69
2023/03/08 01:18:23;;;;;;;0.00;0.00;;;4.20;87.90;;;;;;5049244;28;20128;-69
2023/03/08 01:21:03;;;;;;;0.00;0.00;;;4.20;88.10;;;;;;5069880;28;20111;-69
2023/03/08 01:23:29;;;;;;;0.00;0.00;;;4.10;88.10;;;;;;5071193;28;20391;-69
2023/03/08 01:26:06;;;;;;;0.00;0.00;;;4.10;88.20;;;;;;5071147;28;20090;-69
2023/03/08 01:28:32;;;;;;;0.00;0.00;;;4.20;88.20;;;;;;5070953;28;20020;-69
2023/03/08 01:31:05;;;;;;;;;;;4.20;88.20;;;;;;5071412;28;20032;-69
2023/03/08 01:33:31;;;;;;;0.00;0.00;;;4.20;88.20;;;;;;5070862;28;20360;-69
2023/03/08 01:35:56;;;;;;;0.00;0.00;;;4.20;88.20;;;;;;5070802;28;20039;-69
2023/03/08 01:38:23;;;;;;;0.00;0.00;;;4.20;88.20;;;;;;5070718;28;20036;-69
2023/03/08 01:40:48;;;;;;;0.00;0.00;;;4.20;88.20;;;;;;5070610;28;20054;-69
2023/03/08 01:43:23;;;;;;;0.00;0.00;;;4.30;88.20;;;;;;5069365;28;20415;-69
2023/03/08 01:46:06;;;;;;;0.00;0.00;;;4.30;88.20;;;;;;5070611;28;20039;-69
2023/03/08 01:48:40;;;;;;;0.00;0.00;;;4.30;88.20;;;;;;5070740;28;20012;-69
2023/03/08 01:51:09;;;;;;;0.00;0.00;;;4.30;88.20;;;;;;5069585;28;20036;-70
2023/03/08 01:53:37;;;;;;;0.00;0.00;;;4.30;88.30;;;;;;5069043;28;20559;-69
2023/03/08 01:56:05;;;;;;;0.00;0.00;;;4.30;88.30;;;;;;5070602;28;20063;-69
2023/03/08 01:58:31;;;;;;;0.00;0.00;;;4.40;88.30;;;;;;5070535;28;20036;-69
2023/03/08 02:00:57;;;;;;;0.00;0.00;;;4.50;88.40;;;;;;5069202;28;20431;-69
2023/03/08 02:03:22;;;;;;;0.00;0.00;;;4.50;88.30;;;;;;5070459;28;20212;-69
2023/03/08 02:05:50;;;;;;;0.00;0.00;;;4.60;88.30;;;;;;5052574;28;20073;-69
2023/03/08 02:08:15;;;;;;;0.00;0.00;;;4.60;88.30;;;;;;5070263;28;20308;-69
2023/03/08 02:10:42;;;;;;;0.00;0.00;;;4.60;88.30;;;;;;5070358;28;20388;-69
2023/03/08 02:13:10;;;;;;;0.00;0.00;;;4.70;88.30;;;;;;5068653;28;20047;-70
2023/03/08 02:15:36;;;;;;;0.00;0.00;;;4.70;88.30;;;;;;5070129;28;20035;-69
2023/03/08 02:18:01;;;;;;;0.00;0.00;;;4.70;88.30;;;;;;5068505;28;20181;-69
2023/03/08 02:20:34;;;;;;;0.00;0.00;;;4.70;88.30;;;;;;5070030;28;20114;-69
2023/03/08 02:23:26;;;;;;;0.00;0.00;;;4.70;88.30;;;;;;5068963;28;20118;-69
2023/03/08 02:26:03;;;;;;;0.00;0.00;;;4.80;88.50;;;;;;5066055;28;20056;-69
2023/03/08 02:28:31;;;;;;;0.00;0.00;;;4.80;88.50;;;;;;5068484;28;20025;-70
2023/03/08 02:30:57;;;;;;;0.00;0.00;;;4.90;88.50;;;;;;5069809;28;20040;-69
2023/03/08 02:33:23;;;;;;;;;;;4.90;88.50;;;;;;5070117;28;20491;-69
2023/03/08 02:35:49;;;;;;;0.20;0.10;;;5.00;88.50;;;;;;5069662;28;19908;-69
2023/03/08 02:38:17;;;;;;;0.00;0.00;;;5.00;88.40;;;;;;5051727;28;20477;-69
2023/03/08 02:40:43;;;;;;;0.00;0.00;;;5.00;88.30;;;;;;5069608;28;20370;-70
2023/03/08 02:43:09;;;;;;;0.00;0.00;;;5.00;88.30;;;;;;5069518;28;20032;-70
2023/03/08 02:45:35;;;;;;;0.00;0.00;;;5.00;88.40;;;;;;5051589;28;20028;-70
2023/03/08 02:48:04;;;;;;;0.00;0.00;;;5.10;88.40;;;;;;5069573;28;20089;-70
2023/03/08 02:50:31;;;;;;;0.00;0.00;;;5.10;88.30;;;;;;5069421;28;20056;-70
2023/03/08 02:52:57;;;;;;;0.00;0.00;;;5.10;88.40;;;;;;5069474;28;20046;-70
2023/03/08 02:55:23;;;;;;;0.00;0.00;;;5.00;88.40;;;;;;5068133;28;20020;-70
2023/03/08 02:57:49;;;;;;;0.00;0.00;;;5.10;88.50;;;;;;5069230;28;20035;-70
2023/03/08 03:00:15;;;;;;;0.00;0.00;;;5.10;88.50;;;;;;5069128;28;20052;-70
2023/03/08 03:02:41;;;;;;;0.00;0.00;;;5.10;88.50;;;;;;5067911;28;20029;-70
2023/03/08 03:05:09;;;;;;;0.00;0.00;;;5.10;88.40;;;;;;5069161;28;20469;-70
2023/03/08 03:07:37;;;;;;;0.00;0.00;;;5.10;88.40;;;;;;5067771;28;20029;-70
2023/03/08 03:10:04;;;;;;;0.00;0.00;;;5.10;88.50;;;;;;5069085;28;20142;-70
2023/03/08 03:12:30;;;;;;;0.00;0.00;;;5.00;88.60;;;;;;5068126;28;20036;-70
2023/03/08 03:14:56;;;;;;;0.00;0.00;;;5.10;88.70;;;;;;5067797;28;20078;-70
2023/03/08 03:17:22;;;;;;;0.00;0.00;;;5.10;88.60;;;;;;5068589;28;20404;-70
2023/03/08 03:19:48;;;;;;;0.00;0.00;;;5.10;88.60;;;;;;5068775;28;20029;-70
2023/03/08 03:22:13;;;;;;;0.00;0.00;;;5.10;88.70;;;;;;5068881;28;20032;-70
2023/03/08 03:24:39;;;;;;;0.00;0.00;;;5.10;88.70;;;;;;5068842;28;20047;-70
2023/03/08 03:27:05;;;;;;;0.00;0.00;;;5.10;88.70;;;;;;5069237;28;20103;-70
2023/03/08 03:29:31;;;;;;;0.00;0.00;;;5.10;88.60;;;;;;5067288;28;20044;-70
2023/03/08 03:31:56;;;;;;;0.00;0.00;;;5.10;88.60;;;;;;5068649;28;20028;-70
2023/03/08 03:34:22;;;;;;;0.00;0.00;;;5.20;88.50;;;;;;5050723;28;20083;-70
2023/03/08 03:36:48;;;;;;;0.00;0.00;;;5.20;89.00;;;;;;5050713;28;20037;-70
2023/03/08 03:39:14;;;;;;;0.00;0.00;;;5.10;88.60;;;;;;5050493;28;20054;-70
2023/03/08 03:41:40;;;;;;;0.00;0.00;;;5.20;88.60;;;;;;5067206;28;20025;-71
2023/03/08 03:44:05;;;;;;;0.05;0.00;;;5.20;88.60;;;;;;5068387;28;20040;-70
2023/03/08 03:46:31;;;;;;;0.00;0.00;;;5.10;88.60;;;;;;5067001;28;20029;-70
2023/03/08 03:48:57;;;;;;;0.00;0.00;;;5.10;88.60;;;;;;5068340;28;20043;-70
2023/03/08 03:51:23;;;;;;;0.00;0.00;;;5.20;88.70;;;;;;5068257;28;20170;-70
2023/03/08 03:53:49;;;;;;;0.00;0.00;;;5.20;88.80;;;;;;5068173;28;20503;-70
2023/03/08 03:56:23;;;;;;;0.00;0.00;;;5.20;88.70;;;;;;5068426;28;20028;-70
2023/03/08 03:58:51;;;;;;;0.00;0.00;;;5.20;88.70;;;;;;5068257;28;20048;-70
2023/03/08 04:01:23;;;;;;;0.00;0.00;;;5.20;88.70;;;;;;5066829;28;20050;-70
2023/03/08 04:03:50;;;;;;;0.00;0.00;;;5.20;88.60;;;;;;5068076;28;20388;-70
2023/03/08 04:06:18;;;;;;;0.00;0.00;;;5.30;88.60;;;;;;5068021;28;20400;-70
2023/03/08 04:08:44;;;;;;;0.00;0.00;;;5.30;88.50;;;;;;5067852;28;20457;-70
2023/03/08 04:11:12;;;;;;;0.00;0.00;;;5.30;88.40;;;;;;5067991;28;20499;-70
2023/03/08 04:13:38;;;;;;;0.00;0.00;;;5.30;88.30;;;;;;5068094;28;20032;-70
2023/03/08 04:16:10;;;;;;;0.00;0.00;;;5.30;88.40;;;;;;5067846;28;20051;-70
2023/03/08 04:18:36;;;;;;;0.00;0.00;;;5.20;88.30;;;;;;5066352;28;20044;-70
2023/03/08 04:21:02;;;;;;;0.00;0.00;;;5.20;88.40;;;;;;5066511;28;20523;-69
2023/03/08 04:23:28;;;;;;;0.00;0.00;;;5.10;88.50;;;;;;5067699;28;20060;-69
2023/03/08 04:25:54;;;;;;;0.00;0.00;;;5.10;88.60;;;;;;5067681;28;20461;-70
2023/03/08 04:28:19;;;;;;;0.00;0.00;;;5.00;88.60;;;;;;5066385;28;20535;-70
2023/03/08 04:30:45;;;;;;;0.00;0.00;;;5.00;88.50;;;;;;5067583;28;20020;-70
2023/03/08 04:33:11;;;;;;;0.00;0.00;;;4.90;88.60;;;;;;5049846;28;20029;-70
2023/03/08 04:35:36;;;;;;;0.00;0.00;;;4.90;88.60;;;;;;5067741;28;20085;-70
2023/03/08 04:38:02;;;;;;;0.00;0.00;;;4.80;88.60;;;;;;5067411;28;20032;-70
2023/03/08 04:40:28;;;;;;;0.00;0.00;;;4.80;88.60;;;;;;5066164;28;20078;-70
2023/03/08 04:42:55;;;;;;;0.00;0.00;;;4.80;88.50;;;;;;5066356;28;20063;-70
2023/03/08 04:45:21;;;;;;;0.00;0.00;;;4.70;88.50;;;;;;5067565;28;20020;-70
2023/03/08 04:47:46;;;;;;;0.00;0.00;;;4.70;88.60;;;;;;5067446;28;20024;-70
2023/03/08 04:50:13;;;;;;;0.00;0.00;;;4.70;88.60;;;;;;5067485;28;20362;-70
2023/03/08 04:52:39;;;;;;;0.00;0.00;;;4.70;88.60;;;;;;5067277;28;20063;-68
2023/03/08 04:55:05;;;;;;;0.00;0.00;;;4.70;88.60;;;;;;5070255;28;20441;-67
2023/03/08 04:57:31;;;;;;;0.00;0.00;;;4.70;88.60;;;;;;5073632;28;20058;-67
2023/03/08 04:59:57;;;;;;;0.00;0.00;;;4.70;88.60;;;;;;5072637;28;20486;-70
2023/03/08 05:02:23;;;;;;;0.00;0.00;;;4.70;88.60;;;;;;5072696;28;20032;-70
2023/03/08 05:04:49;;;;;;;0.00;0.00;;;4.70;88.60;;;;;;5072610;28;20079;-70
2023/03/08 05:07:14;;;;;;;0.00;0.00;;;4.70;88.50;;;;;;5073703;28;20111;-70
2023/03/08 05:09:40;;;;;;;0.00;0.00;;;4.70;88.50;;;;;;5072737;28;20042;-70
2023/03/08 05:12:06;;;;;;;0.00;0.00;;;4.60;88.60;;;;;;5072754;28;20036;-70
2023/03/08 05:14:32;;;;;;;0.00;0.00;;;4.60;88.50;;;;;;5072610;28;20032;-70
2023/03/08 05:16:58;;;;;;;0.00;0.00;;;4.60;88.50;;;;;;5073789;28;20089;-70
2023/03/08 05:19:24;;;;;;;0.00;0.00;;;4.60;88.50;;;;;;5073788;28;20050;-70
2023/03/08 05:21:50;;;;;;;0.00;0.00;;;4.60;88.60;;;;;;5072493;28;20032;-70
2023/03/08 05:24:16;;;;;;;;;;;4.60;88.50;;;;;;5074250;28;20112;-70
2023/03/08 05:26:41;;;;;;;0.00;0.00;;;4.60;88.50;;;;;;5073874;28;20004;-70
2023/03/08 05:29:07;;;;;;;0.00;0.00;;;4.60;88.40;;;;;;5072597;28;20059;-70
2023/03/08 05:31:35;;;;;;;0.00;0.00;;;4.60;88.40;;;;;;5072579;28;20046;-70
2023/03/08 05:34:01;;;;;;;0.00;0.00;;;4.60;88.40;;;;;;5073779;28;20021;-70
2023/03/08 05:36:26;;;;;;;0.00;0.00;;;4.60;88.50;;;;;;5073716;28;20170;-70
2023/03/08 05:38:55;;;;;;;0.00;0.00;;;4.60;88.50;;;;;;5072288;28;20038;-70
2023/03/08 05:41:21;;;;;;;0.00;0.00;;;4.60;88.50;;;;;;5072384;28;20028;-70
2023/03/08 05:43:47;;;;;;;0.00;0.00;;;4.60;88.50;;;;;;5072390;28;20438;-70
2023/03/08 05:46:17;;;;;;;0.00;0.00;;;4.60;88.50;;;;;;5072518;28;20032;-70
2023/03/08 05:48:44;;;;;;;0.00;0.00;;;4.60;88.50;;;;;;5073545;28;20074;-70
2023/03/08 05:51:11;;;;;;;;;;;4.50;88.50;;;;;;5055812;28;20025;-70
2023/03/08 05:53:37;;;;;;;0.00;0.00;;;4.60;88.50;;;;;;5073555;28;19905;-70
2023/03/08 05:56:08;;;;;;;0.00;0.00;;;4.60;88.50;;;;;;5073562;28;20036;-71
2023/03/08 05:58:35;;;;;;;0.00;0.00;;;4.60;88.50;;;;;;5073354;28;20445;-71
2023/03/08 06:01:15;;;;;;;0.00;0.00;;;4.60;88.60;;;;;;5071953;28;20052;-71
2023/03/08 06:03:42;;;;;;;0.00;0.00;;;4.60;88.50;;;;;;5073489;28;20434;-70
2023/03/08 06:06:08;;;;;;;0.00;0.00;;;4.70;88.60;;;;;;5069938;28;20041;-70
2023/03/08 06:08:34;;;;;;;0.00;0.00;;;4.70;88.60;;;;;;5070257;28;20150;-70
2023/03/08 06:10:59;;;;;;;0.00;0.00;;;4.70;88.60;;;;;;5070435;28;20039;-70
2023/03/08 06:13:25;;;;;;;0.00;0.00;;;4.80;88.50;;;;;;5070364;28;20029;-70
2023/03/08 06:15:58;;;;;;;0.00;0.00;;;4.80;88.50;;;;;;5069899;28;20385;-70
2023/03/08 06:18:24;;;;;;;0.00;0.00;;;4.80;88.40;;;;;;5069736;28;20499;-71
2023/03/08 06:21:07;;;;;;;0.13;0.05;;;4.90;88.50;;;;;;5070006;28;20017;-70
2023/03/08 06:23:34;;;;;;;0.00;0.00;;;4.80;88.40;;;;;;5069870;28;20028;-70
2023/03/08 06:26:01;;;;;;;0.00;0.00;;;4.90;88.40;;;;;;5068463;28;20021;-70
2023/03/08 06:28:28;;;;;;;0.00;0.00;;;4.90;88.40;;;;;;5068616;28;20028;-71
2023/03/08 06:30:54;;;;;;;0.00;0.00;;;4.90;88.40;;;;;;5068205;28;20408;-71
2023/03/08 06:33:23;;;;;;;0.00;0.00;;;4.80;88.30;;;;;;5068663;28;20029;-71
2023/03/08 06:36:03;;;;;;;0.00;0.00;;;4.80;88.40;;;;;;5069916;28;20107;-70
2023/03/08 06:38:31;;;;;;;0.00;0.00;;;4.80;88.40;;;;;;5069988;28;20089;-71
2023/03/08 06:40:57;;;;;;;0.00;0.00;;;4.80;88.40;;;;;;5069678;28;20031;-70
2023/03/08 06:43:23;;;;;;;0.00;0.00;;;4.70;88.40;;;;;;5068037;28;20025;-70
2023/03/08 06:45:49;;;;;;;0.00;0.00;;;4.70;88.40;;;;;;5069514;28;20358;-71
2023/03/08 06:48:14;;;;;;;0.00;0.00;;;4.70;88.40;;;;;;5068351;28;20473;-71
2023/03/08 06:50:40;;;;;;;0.00;0.00;;;4.70;88.50;;;;;;5069816;28;20047;-71
2023/03/08 06:53:07;;;;;;;0.00;0.00;;;4.70;88.60;;;;;;5068125;28;20029;-70
2023/03/08 06:55:37;;;;;;;0.00;0.00;;;4.70;88.60;;;;;;5067973;28;20102;-70
2023/03/08 06:58:03;;;;;;;0.00;0.00;;;4.70;88.50;;;;;;5068902;28;20108;-70
2023/03/08 07:00:29;;;;;;;0.00;0.00;;;4.80;88.50;;;;;;5068712;28;20119;-70
2023/03/08 07:02:54;;;;;;;0.00;0.00;;;4.80;88.50;;;;;;5069191;28;20099;-70
2023/03/08 07:05:21;;;;;;;0.00;0.00;;;4.80;88.50;;;;;;5067879;28;20029;-70
2023/03/08 07:07:46;;;;;;;;;;;4.80;88.50;;;;;;5069196;28;20511;-70
2023/03/08 07:10:14;;;;;;;0.00;0.00;;;4.80;88.50;;;;;;5067420;28;19947;-70
2023/03/08 07:12:42;;;;;;;0.00;0.00;;;4.80;88.40;;;;;;5068821;28;20179;-70
2023/03/08 07:15:13;;;;;;;0.00;0.00;;;4.80;88.30;;;;;;5068936;28;20059;-71
2023/03/08 07:17:40;;;;;;;0.00;0.00;;;4.80;88.30;;;;;;5068288;28;20036;-71
2023/03/08 07:20:07;;;;;;;0.00;0.00;;;4.80;88.40;;;;;;5068672;28;20029;-70
2023/03/08 07:22:33;;;;;;;0.00;0.00;;;4.80;88.40;;;;;;5068756;28;20037;-70
2023/03/08 07:24:58;;;;;;;0.00;0.00;;;4.90;88.40;;;;;;5068435;28;20016;-70
2023/03/08 07:27:24;;;;;;;0.00;0.00;;;4.90;88.40;;;;;;5067160;28;20067;-70
2023/03/08 07:29:50;;;;;;;0.00;0.00;;;4.90;88.40;;;;;;5067170;28;20036;-71
2023/03/08 07:32:16;;;;;;;0.00;0.00;;;4.90;88.40;;;;;;5068446;28;20435;-71
2023/03/08 07:34:42;;;;;;;0.00;0.00;;;4.90;88.40;;;;;;5068390;28;20028;-70
2023/03/08 07:37:15;;;;;;;0.00;0.00;;;4.90;88.40;;;;;;5066662;28;20040;-71
2023/03/08 07:39:41;;;;;;;0.00;0.00;;;5.00;88.40;;;;;;5068091;28;20112;-70
2023/03/08 07:42:07;;;;;;;;;;;5.00;88.20;;;;;;5067933;28;20024;-71
2023/03/08 07:44:32;;;;;;;0.00;0.00;;;5.00;88.10;;;;;;5068345;28;19966;-72
2023/03/08 07:46:58;;;;;;;0.00;0.00;;;4.90;88.00;;;;;;5068160;28;20028;-73
2023/03/08 07:49:24;;;;;;;0.00;0.00;;;4.90;88.10;;;;;;5067914;28;20052;-72
2023/03/08 07:51:53;;;;;;;0.00;0.00;;;4.90;88.10;;;;;;5066717;28;20051;-70
2023/03/08 07:54:19;;;;;;;0.00;0.00;;;4.90;88.20;;;;;;5050563;28;20028;-71
2023/03/08 07:56:44;;;;;;;0.00;0.00;;;4.90;88.30;;;;;;5066617;28;20078;-70
2023/03/08 07:59:10;;;;;;;0.00;0.00;;;4.90;88.30;;;;;;5067340;28;20040;-70
2023/03/08 08:01:36;;;;;;;0.00;0.00;;;5.00;88.50;;;;;;5067469;28;20036;-70
2023/03/08 08:04:02;;;;;;;0.00;0.00;;;5.00;88.60;;;;;;5067426;28;20044;-70
2023/03/08 08:06:28;;;;;;;0.00;0.00;;;5.10;88.70;;;;;;5068213;28;20111;-70
2023/03/08 08:08:54;;;;;;;0.00;0.00;;;5.20;88.80;;;;;;5067401;28;20519;-70
2023/03/08 08:11:21;;;;;;;0.00;0.00;;;5.30;88.80;;;;;;5067589;28;20029;-71
2023/03/08 08:13:47;;;;;;;0.00;0.00;;;5.40;88.80;;;;;;5066227;28;20055;-71
2023/03/08 08:16:14;;;;;;;0.00;0.00;;;5.50;88.90;;;;;;5066134;28;20137;-71
2023/03/08 08:18:39;;;;;;;0.00;0.00;;;5.60;89.00;;;;;;5065725;28;20044;-70
2023/03/08 08:21:07;;;;;;;0.00;0.00;;;5.70;89.00;;;;;;5067494;28;20032;-70
2023/03/08 08:23:34;;;;;;;0.00;0.00;;;5.80;89.00;;;;;;5067288;28;20025;-70
2023/03/08 08:26:03;;;;;;;0.00;0.00;;;6.00;89.20;;;;;;5067393;28;20126;-70
2023/03/08 08:28:29;;;;;;;0.00;0.00;;;6.10;89.00;;;;;;5065962;28;20082;-70
2023/03/08 08:31:01;;;;;;;0.00;0.00;;;6.20;89.10;;;;;;5066691;28;20449;-70
2023/03/08 08:33:28;;;;;;;0.00;0.00;;;6.30;89.20;;;;;;5067427;28;20056;-70
2023/03/08 08:35:53;;;;;;;0.00;0.00;;;6.40;89.30;;;;;;5065556;28;20535;-70
2023/03/08 08:38:19;;;;;;;0.00;0.00;;;6.60;89.30;;;;;;5066943;28;20127;-72
2023/03/08 08:40:45;;;;;;;0.00;0.00;;;6.60;89.20;;;;;;5049035;28;20062;-70
2023/03/08 08:43:11;;;;;;;0.00;0.00;;;6.90;89.70;;;;;;5065579;28;20074;-70
2023/03/08 08:45:53;;;;;;;0.00;0.00;;;7.00;89.50;;;;;;5049171;28;20033;-69
2023/03/08 08:48:18;;;;;;;0.00;0.00;;;7.00;89.30;;;;;;5066057;28;20033;-70
2023/03/08 08:50:44;;;;;;;0.00;0.00;;;7.00;89.20;;;;;;5067532;28;20035;-70
2023/03/08 08:53:10;;;;;;;0.00;0.00;;;6.90;89.20;;;;;;5065582;28;20472;-70
2023/03/08 08:55:35;;;;;;;0.00;0.00;;;6.80;89.00;;;;;;5066884;28;20025;-70
2023/03/08 08:58:03;;;;;;;0.00;0.00;;;6.80;89.10;;;;;;5066832;28;20526;-70
2023/03/08 09:00:29;;;;;;;0.00;0.00;;;6.70;89.10;;;;;;5072531;28;20028;-70
2023/03/08 09:02:55;;;;;;;;;;;6.60;89.10;;;;;;5075648;28;20138;-71
2023/03/08 09:05:21;;;;;;;0.00;0.00;;;6.60;89.20;;;;;;5058829;28;19928;-78
2023/03/08 09:07:47;;;;;;;0.00;0.00;;;6.60;89.30;;;;;;5080942;28;20029;-78
2023/03/08 09:10:12;;;;;;;0.00;0.00;;;6.60;89.50;;;;;;5080109;28;20035;-77
2023/03/08 09:12:38;;;;;;;0.00;0.00;;;6.70;89.50;;;;;;5078781;28;20078;-72
2023/03/08 09:15:05;;;;;;;0.00;0.00;;;6.80;89.70;;;;;;5077001;28;20036;-71
2023/03/08 09:17:32;;;;;;;0.00;0.00;;;6.80;89.50;;;;;;5076797;28;20417;-79
2023/03/08 09:19:58;;;;;;;0.00;0.00;;;6.90;89.70;;;;;;5073338;28;20387;-80
2023/03/08 09:22:25;;;;;;;0.00;0.00;;;7.20;90.10;;;;;;5077013;28;20012;-79
2023/03/08 09:24:51;;;;;;;0.00;0.00;;;7.40;90.00;;;;;;5076546;28;20590;-80
2023/03/08 09:27:17;;;;;;;0.00;0.00;;;7.60;90.00;;;;;;5076955;28;20041;-80
2023/03/08 09:29:43;;;;;;;0.00;0.00;;;7.80;90.00;;;;;;5077418;28;20449;-80
2023/03/08 09:32:09;;;;;;;0.00;0.00;;;7.90;89.70;;;;;;5074739;28;20502;-79
2023/03/08 09:34:34;;;;;;;0.00;0.00;;;7.90;89.70;;;;;;5075620;28;20032;-80
2023/03/08 09:37:01;;;;;;;0.00;0.00;;;8.00;90.00;;;;;;5060698;28;20066;-79
2023/03/08 09:39:27;;;;;;;0.00;0.00;;;8.10;90.00;;;;;;5076707;28;20416;-78
2023/03/08 09:41:58;;;;;;;0.00;0.00;;;8.20;90.30;;;;;;5080034;28;20017;-79
2023/03/08 09:44:29;;;;;;;0.00;0.00;;;8.60;90.50;;;;;;5061523;28;20082;-79
2023/03/08 09:47:06;;;;;;;0.00;0.00;;;9.00;90.50;;;;;;5082038;28;20021;-79
2023/03/08 09:49:33;;;;;;;0.00;0.00;;;9.20;90.20;;;;;;5079621;28;20345;-79
2023/03/08 09:52:05;;;;;;;0.00;0.00;;;9.40;90.10;;;;;;5076570;28;20020;-80
2023/03/08 09:54:33;;;;;;;0.00;0.00;;;9.60;90.50;;;;;;5077537;28;20597;-81
2023/03/08 09:57:01;;;;;;;0.00;0.00;;;10.00;90.50;;;;;;5079752;28;20036;-77
2023/03/08 09:59:39;;;;;;;0.00;0.00;;;10.20;90.50;;;;;;5091487;28;20040;-77
2023/03/08 10:02:30;;;;;;;0.00;0.00;;;10.60;90.70;;;;;;5092675;28;20070;-77
2023/03/08 10:05:06;;;;;;;0.00;0.00;;;10.90;90.70;;;;;;5072648;28;20031;-77
2023/03/08 10:07:47;;;;;;;0.00;0.00;;;11.10;90.60;;;;;;5071768;28;20066;-77
2023/03/08 10:10:46;;;;;;;0.00;0.00;;;11.20;90.20;;;;;;5083886;28;20073;-77
2023/03/08 10:13:33;;;;;;;0.00;0.00;;;10.70;90.00;;;;;;5068361;28;20028;-77
2023/03/08 10:16:24;;;;;;;0.00;0.00;;;10.30;90.00;;;;;;5083802;28;20052;-77
2023/03/08 10:19:14;;;;;;;0.00;0.00;;;9.90;90.30;;;;;;5053941;28;20154;-77
2023/03/08 10:21:43;;;;;;;0.00;0.00;;;9.70;90.40;;;;;;5090980;28;20031;-77
2023/03/08 10:24:27;;;;;;;0.00;0.00;;;9.50;90.40;;;;;;5091904;28;20024;-77
2023/03/08 10:27:21;;;;;;;0.00;0.00;;;9.50;90.60;;;;;;5075150;28;20021;-77
2023/03/08 10:29:49;;;;;;;0.00;0.00;;;9.50;90.50;;;;;;5069390;28;20043;-77
2023/03/08 10:32:14;;;;;;;0.00;0.00;;;9.60;90.50;;;;;;5074224;28;20111;-77
2023/03/08 10:34:40;;;;;;;0.00;0.00;;;9.60;90.40;;;;;;5080715;28;20155;-77
2023/03/08 10:37:07;;;;;;;0.00;0.00;;;9.50;90.30;;;;;;5071505;28;20439;-77
2023/03/08 10:39:35;;;;;;;0.00;0.00;;;9.50;90.20;;;;;;5071529;28;20024;-73
2023/03/08 10:42:12;;;;;;;0.00;0.00;;;9.30;90.30;;;;;;5072047;28;20020;-78
2023/03/08 10:44:41;;;;;;;;;;;9.40;90.60;;;;;;5071874;28;20020;-77
2023/03/08 10:47:25;;;;;;;0.00;0.00;;;9.50;90.60;;;;;;5080375;28;19915;-79
2023/03/08 10:50:16;;;;;;;0.00;0.00;;;9.80;90.80;;;;;;5075652;28;20063;-76
2023/03/08 10:52:44;;;;;;;0.00;0.00;;;10.20;90.90;;;;;;5082081;28;20032;-79
2023/03/08 10:55:28;;;;;;;0.00;0.00;;;10.30;90.50;;;;;;5082860;28;20031;-78
2023/03/08 10:57:59;;;;;;;0.00;0.00;;;10.30;90.40;;;;;;5078761;28;20374;-79
2023/03/08 11:00:43;;;;;;;0.00;0.00;;;10.30;90.40;;;;;;5079377;28;20020;-78
2023/03/08 11:03:19;;;;;;;0.00;0.00;;;10.20;90.20;;;;;;5091426;28;20482;-78
2023/03/08 11:05:52;;;;;;;0.00;0.00;;;10.00;90.20;;;;;;5072047;28;20020;-78
2023/03/08 11:08:24;;;;;;;0.00;0.00;;;9.90;90.30;;;;;;5083615;28;20103;-77
2023/03/08 11:11:00;;;;;;;0.00;0.00;;;10.00;90.60;;;;;;5083475;28;20429;-77
2023/03/08 11:13:33;;;;;;;0.00;0.00;;;9.90;90.20;;;;;;5080320;28;20095;-76
2023/03/08 11:16:07;;;;;;;0.00;0.00;;;9.70;90.10;;;;;;5082459;28;20040;-78
2023/03/08 11:19:01;;;;;;;0.00;0.00;;;9.40;90.00;;;;;;5078097;28;20055;-78
2023/03/08 11:21:48;;;;;;;0.00;0.00;;;9.10;89.90;;;;;;5086623;28;20026;-78
2023/03/08 11:24:22;;;;;;;0.00;0.00;;;9.00;90.30;;;;;;5061917;28;20348;-77
2023/03/08 11:27:10;;;;;;;0.00;0.00;;;9.20;90.40;;;;;;5084995;28;20017;-77
2023/03/08 11:29:57;;;;;;;0.00;0.00;;;9.40;90.40;;;;;;5077252;28;20020;-74
2023/03/08 11:32:37;;;;;;;0.00;0.00;;;9.50;90.30;;;;;;5074544;28;20414;-75
2023/03/08 11:35:16;;;;;;;0.10;0.00;;;9.40;90.00;;;;;;5075236;28;20037;-78
2023/03/08 11:38:17;;;;;;;0.00;0.00;;;9.30;90.00;;;;;;5085041;28;20024;-77
2023/03/08 11:41:17;;;;;;;0.00;0.00;;;9.20;90.10;;;;;;5071122;28;20093;-70
2023/03/08 11:44:20;;;;;;;0.00;0.00;;;9.20;90.10;;;;;;5074487;28;20107;-69
2023/03/08 11:46:56;;;;;;;0.00;0.00;;;9.20;90.00;;;;;;5072463;28;20012;-70
2023/03/08 11:49:58;;;;;;;0.00;0.00;;;9.20;90.10;;;;;;5075676;28;20384;-70
2023/03/08 11:53:01;;;;;;;0.00;0.00;;;9.20;90.00;;;;;;5080467;28;20269;-70
2023/03/08 11:55:51;;;;;;;0.00;0.00;;;9.20;90.20;;;;;;5076827;28;20536;-72
2023/03/08 11:58:24;;;;;;;0.00;0.00;;;9.40;90.30;;;;;;5079186;28;20036;-71
2023/03/08 12:00:55;;;;;;;0.00;0.00;;;9.40;90.00;;;;;;5079457;28;20024;-76
2023/03/08 12:03:35;;;;;;;0.00;0.00;;;9.20;90.00;;;;;;5077086;28;20545;-68
2023/03/08 12:06:32;;;;;;;0.00;0.00;;;9.20;90.10;;;;;;5065991;28;20039;-70
2023/03/08 12:09:30;;;;;;;0.00;0.00;;;9.20;90.20;;;;;;5067556;28;20061;-70
2023/03/08 12:12:18;;;;;;;0.00;0.00;;;9.20;89.90;;;;;;5077028;28;20033;-69
2023/03/08 12:15:01;;;;;;;0.00;0.00;;;9.00;90.00;;;;;;5077143;28;20040;-68
2023/03/08 12:17:35;;;;;;;0.13;0.13;;;9.00;90.00;;;;;;5071413;28;20067;-71
2023/03/08 12:20:01;;;;;;;0.00;0.00;;;9.00;90.00;;;;;;5076348;28;20107;-72
2023/03/08 12:22:43;;;;;;;0.00;0.00;;;9.00;90.00;;;;;;5076741;28;20103;-69
2023/03/08 12:25:29;;;;;;;0.00;0.00;;;9.00;90.20;;;;;;5073635;28;20013;-71
2023/03/08 12:28:23;;;;;;;0.00;0.00;;;9.20;90.10;;;;;;5078277;28;20020;-70
2023/03/08 12:31:24;;;;;;;0.00;0.00;;;9.30;90.10;;;;;;5076001;28;20027;-70
2023/03/08 12:33:51;;;;;;;0.00;0.00;;;9.40;90.20;;;;;;5071011;28;20061;-70
2023/03/08 12:36:19;;;;;;;0.00;0.00;;;9.30;90.10;;;;;;5075397;28;20020;-71
2023/03/08 12:38:55;;;;;;;0.00;0.00;;;9.30;90.10;;;;;;5077600;28;20024;-68
2023/03/08 12:41:30;;;;;;;0.00;0.00;;;9.30;90.00;;;;;;5060311;28;20043;-70
2023/03/08 12:44:03;;;;;;;0.00;0.00;;;9.30;90.00;;;;;;5076310;28;20016;-70
2023/03/08 12:46:51;;;;;;;0.00;0.00;;;9.50;90.50;;;;;;5077305;28;20020;-71
2023/03/08 12:49:38;;;;;;;0.00;0.00;;;9.80;90.20;;;;;;5080955;28;20020;-72
2023/03/08 12:52:16;;;;;;;;;;;9.70;90.10;;;;;;5072805;28;20024;-70
2023/03/08 12:54:43;;;;;;;0.00;0.00;;;9.70;90.00;;;;;;5078613;28;20038;-71
2023/03/08 12:57:21;;;;;;;0.00;0.00;;;9.70;90.30;;;;;;5080699;28;20070;-71
2023/03/08 12:59:48;;;;;;;0.00;0.00;;;9.70;90.00;;;;;;5073655;28;20021;-70
2023/03/08 13:02:30;;;;;;;0.00;0.00;;;9.60;90.20;;;;;;5073474;28;20054;-71
2023/03/08 13:05:18;;;;;;;0.00;0.00;;;9.60;90.10;;;;;;5075773;28;20021;-71
2023/03/08 13:08:12;;;;;;;0.00;0.00;;;9.40;90.10;;;;;;5074999;28;20020;-73
2023/03/08 13:11:00;;;;;;;0.00;0.00;;;9.30;90.10;;;;;;5052714;28;20498;-73
2023/03/08 13:13:38;;;;;;;;;;;9.20;90.20;;;;;;5065090;28;20070;-75
2023/03/08 13:16:06;;;;;;;0.00;0.00;;;9.10;90.10;;;;;;5071490;28;19914;-74